sensor_id;sensor_type;location;lat;lon;timestamp;temperature;humidity
39023;DHT22;25908;51.984;5.928;2022-09-23T00:00:35;12.10;93.10
39023;DHT22;25908;51.984;5.928;2022-09-23T00:03:00;12.10;93.20
39023;DHT22;25908;51.984;5.928;2022-09-23T00:05:27;12.10;93.10
39023;DHT22;25908;51.984;5.928;2022-09-23T00:07:53;12.10;93.20
39023;DHT22;25908;51.984;5.928;2022-09-23T00:10:20;12.10;93.20
39023;DHT22;25908;51.984;5.928;2022-09-23T00:12:45;12.10;93.20
39023;DHT22;25908;51.984;5.928;2022-09-23T00:15:11;12.10;93.20
39023;DHT22;25908;51.984;5.928;2022-09-23T00:17:37;12.10;93.20
39023;DHT22;25908;51.984;5.928;2022-09-23T00:20:03;12.10;93.20
39023;DHT22;25908;51.984;5.928;2022-09-23T00:22:29;12.00;93.30
39023;DHT22;25908;51.984;5.928;2022-09-23T00:24:54;12.00;93.40
39023;DHT22;25908;51.984;5.928;2022-09-23T00:27:20;12.00;93.30
39023;DHT22;25908;51.984;5.928;2022-09-23T00:29:49;12.00;93.40
39023;DHT22;25908;51.984;5.928;2022-09-23T00:32:14;12.00;93.40
39023;DHT22;25908;51.984;5.928;2022-09-23T00:34:43;12.00;93.40
39023;DHT22;25908;51.984;5.928;2022-09-23T00:37:09;11.90;93.40
39023;DHT22;25908;51.984;5.928;2022-09-23T00:39:34;11.90;93.50
39023;DHT22;25908;51.984;5.928;2022-09-23T00:42:00;11.90;93.60
39023;DHT22;25908;51.984;5.928;2022-09-23T00:44:53;11.90;93.60
39023;DHT22;25908;51.984;5.928;2022-09-23T00:47:37;11.90;93.70
39023;DHT22;25908;51.984;5.928;2022-09-23T00:50:48;11.80;93.80
39023;DHT22;25908;51.984;5.928;2022-09-23T00:53:09;11.80;93.80
39023;DHT22;25908;51.984;5.928;2022-09-23T00:55:42;11.80;93.80
39023;DHT22;25908;51.984;5.928;2022-09-23T00:58:10;11.80;93.80
39023;DHT22;25908;51.984;5.928;2022-09-23T01:00:37;11.80;93.80
39023;DHT22;25908;51.984;5.928;2022-09-23T01:03:04;11.80;93.90
39023;DHT22;25908;51.984;5.928;2022-09-23T01:05:32;11.80;93.90
39023;DHT22;25908;51.984;5.928;2022-09-23T01:07:59;11.80;93.90
39023;DHT22;25908;51.984;5.928;2022-09-23T01:10:40;11.80;93.90
39023;DHT22;25908;51.984;5.928;2022-09-23T01:13:16;11.70;93.90
39023;DHT22;25908;51.984;5.928;2022-09-23T01:19:04;11.70;93.80
39023;DHT22;25908;51.984;5.928;2022-09-23T01:22:02;11.70;94.10
39023;DHT22;25908;51.984;5.928;2022-09-23T01:25:04;11.70;93.80
39023;DHT22;25908;51.984;5.928;2022-09-23T01:30:44;11.60;93.80
39023;DHT22;25908;51.984;5.928;2022-09-23T01:35:56;11.50;93.80
39023;DHT22;25908;51.984;5.928;2022-09-23T01:38:40;11.60;93.90
39023;DHT22;25908;51.984;5.928;2022-09-23T01:44:08;11.50;93.80
39023;DHT22;25908;51.984;5.928;2022-09-23T01:46:51;11.50;93.70
39023;DHT22;25908;51.984;5.928;2022-09-23T01:50:00;11.50;93.80
39023;DHT22;25908;51.984;5.928;2022-09-23T01:53:02;11.50;93.80
39023;DHT22;25908;51.984;5.928;2022-09-23T01:55:33;11.50;93.80
39023;DHT22;25908;51.984;5.928;2022-09-23T01:58:06;11.50;93.80
39023;DHT22;25908;51.984;5.928;2022-09-23T02:00:36;11.40;93.80
39023;DHT22;25908;51.984;5.928;2022-09-23T02:05:48;11.40;93.80
39023;DHT22;25908;51.984;5.928;2022-09-23T02:08:34;11.30;93.80
39023;DHT22;25908;51.984;5.928;2022-09-23T02:11:06;11.30;93.80
39023;DHT22;25908;51.984;5.928;2022-09-23T02:16:36;11.30;93.80
39023;DHT22;25908;51.984;5.928;2022-09-23T02:19:53;11.20;93.80
39023;DHT22;25908;51.984;5.928;2022-09-23T02:22:06;11.20;93.90
39023;DHT22;25908;51.984;5.928;2022-09-23T02:24:37;11.10;93.80
39023;DHT22;25908;51.984;5.928;2022-09-23T02:30:03;11.20;93.80
39023;DHT22;25908;51.984;5.928;2022-09-23T02:33:10;11.10;93.80
39023;DHT22;25908;51.984;5.928;2022-09-23T02:35:53;11.10;93.80
39023;DHT22;25908;51.984;5.928;2022-09-23T02:38:32;11.10;93.90
39023;DHT22;25908;51.984;5.928;2022-09-23T02:41:03;11.10;94.00
39023;DHT22;25908;51.984;5.928;2022-09-23T02:43:50;11.10;94.20
39023;DHT22;25908;51.984;5.928;2022-09-23T02:46:18;11.00;94.30
39023;DHT22;25908;51.984;5.928;2022-09-23T02:48:52;11.00;94.30
39023;DHT22;25908;51.984;5.928;2022-09-23T02:51:21;11.10;94.30
39023;DHT22;25908;51.984;5.928;2022-09-23T02:53:50;11.00;94.30
39023;DHT22;25908;51.984;5.928;2022-09-23T02:56:18;11.00;94.70
39023;DHT22;25908;51.984;5.928;2022-09-23T02:58:48;11.00;94.50
39023;DHT22;25908;51.984;5.928;2022-09-23T03:07:03;11.10;94.50
39023;DHT22;25908;51.984;5.928;2022-09-23T03:21:25;11.00;94.60
39023;DHT22;25908;51.984;5.928;2022-09-23T03:23:44;11.00;94.50
39023;DHT22;25908;51.984;5.928;2022-09-23T03:26:23;11.00;94.50
39023;DHT22;25908;51.984;5.928;2022-09-23T03:28:50;11.00;94.50
39023;DHT22;25908;51.984;5.928;2022-09-23T03:31:16;11.00;94.50
39023;DHT22;25908;51.984;5.928;2022-09-23T03:33:49;11.00;94.50
39023;DHT22;25908;51.984;5.928;2022-09-23T03:36:20;11.00;94.60
39023;DHT22;25908;51.984;5.928;2022-09-23T03:39:14;11.00;94.60
39023;DHT22;25908;51.984;5.928;2022-09-23T03:41:48;11.00;94.50
39023;DHT22;25908;51.984;5.928;2022-09-23T03:44:15;11.00;94.40
39023;DHT22;25908;51.984;5.928;2022-09-23T03:46:41;10.90;94.40
39023;DHT22;25908;51.984;5.928;2022-09-23T03:49:16;10.90;94.40
39023;DHT22;25908;51.984;5.928;2022-09-23T03:51:42;10.90;94.50
39023;DHT22;25908;51.984;5.928;2022-09-23T03:54:08;10.90;94.50
39023;DHT22;25908;51.984;5.928;2022-09-23T03:56:34;10.90;94.50
39023;DHT22;25908;51.984;5.928;2022-09-23T03:59:00;10.90;94.50
39023;DHT22;25908;51.984;5.928;2022-09-23T04:01:25;10.90;94.50
39023;DHT22;25908;51.984;5.928;2022-09-23T04:03:52;10.90;94.40
39023;DHT22;25908;51.984;5.928;2022-09-23T04:06:18;10.90;94.40
39023;DHT22;25908;51.984;5.928;2022-09-23T04:08:43;10.90;94.40
39023;DHT22;25908;51.984;5.928;2022-09-23T04:11:09;10.80;94.40
39023;DHT22;25908;51.984;5.928;2022-09-23T04:13:35;10.80;94.50
39023;DHT22;25908;51.984;5.928;2022-09-23T04:16:00;10.80;94.50
39023;DHT22;25908;51.984;5.928;2022-09-23T04:18:26;10.80;94.60
39023;DHT22;25908;51.984;5.928;2022-09-23T04:20:56;10.70;94.50
39023;DHT22;25908;51.984;5.928;2022-09-23T04:23:24;10.80;94.60
39023;DHT22;25908;51.984;5.928;2022-09-23T04:25:50;10.80;94.70
39023;DHT22;25908;51.984;5.928;2022-09-23T04:28:15;10.80;94.60
39023;DHT22;25908;51.984;5.928;2022-09-23T04:30:41;10.80;94.70
39023;DHT22;25908;51.984;5.928;2022-09-23T04:33:09;10.70;94.70
39023;DHT22;25908;51.984;5.928;2022-09-23T04:35:35;10.70;94.80
39023;DHT22;25908;51.984;5.928;2022-09-23T04:38:03;10.70;94.90
39023;DHT22;25908;51.984;5.928;2022-09-23T04:40:29;10.70;94.90
39023;DHT22;25908;51.984;5.928;2022-09-23T04:42:55;10.70;94.90
39023;DHT22;25908;51.984;5.928;2022-09-23T04:45:20;10.70;94.90
39023;DHT22;25908;51.984;5.928;2022-09-23T04:47:46;10.70;94.90
39023;DHT22;25908;51.984;5.928;2022-09-23T04:50:11;10.80;94.90
39023;DHT22;25908;51.984;5.928;2022-09-23T04:52:37;10.70;94.90
39023;DHT22;25908;51.984;5.928;2022-09-23T04:55:02;10.80;95.00
39023;DHT22;25908;51.984;5.928;2022-09-23T04:57:28;10.80;95.00
39023;DHT22;25908;51.984;5.928;2022-09-23T04:59:54;10.80;95.00
39023;DHT22;25908;51.984;5.928;2022-09-23T05:02:21;10.80;95.00
39023;DHT22;25908;51.984;5.928;2022-09-23T05:04:47;10.80;95.10
39023;DHT22;25908;51.984;5.928;2022-09-23T05:07:12;10.80;95.10
39023;DHT22;25908;51.984;5.928;2022-09-23T05:09:38;10.80;95.20
39023;DHT22;25908;51.984;5.928;2022-09-23T05:12:03;10.80;95.20
39023;DHT22;25908;51.984;5.928;2022-09-23T05:14:29;10.80;95.20
39023;DHT22;25908;51.984;5.928;2022-09-23T05:16:55;10.80;95.20
39023;DHT22;25908;51.984;5.928;2022-09-23T05:19:20;10.80;95.30
39023;DHT22;25908;51.984;5.928;2022-09-23T05:21:47;10.80;95.30
39023;DHT22;25908;51.984;5.928;2022-09-23T05:24:12;10.80;95.40
39023;DHT22;25908;51.984;5.928;2022-09-23T05:26:38;10.80;95.50
39023;DHT22;25908;51.984;5.928;2022-09-23T05:29:04;10.80;95.50
39023;DHT22;25908;51.984;5.928;2022-09-23T05:31:30;10.80;95.60
39023;DHT22;25908;51.984;5.928;2022-09-23T05:34:03;10.80;95.60
39023;DHT22;25908;51.984;5.928;2022-09-23T05:36:30;10.90;95.70
39023;DHT22;25908;51.984;5.928;2022-09-23T05:38:56;10.90;95.70
39023;DHT22;25908;51.984;5.928;2022-09-23T05:41:24;10.90;95.70
39023;DHT22;25908;51.984;5.928;2022-09-23T05:43:50;10.90;95.80
39023;DHT22;25908;51.984;5.928;2022-09-23T05:46:25;10.90;95.80
39023;DHT22;25908;51.984;5.928;2022-09-23T05:48:53;11.00;95.80
39023;DHT22;25908;51.984;5.928;2022-09-23T05:51:21;11.00;95.80
39023;DHT22;25908;51.984;5.928;2022-09-23T05:53:47;11.00;95.80
39023;DHT22;25908;51.984;5.928;2022-09-23T05:56:15;11.00;95.90
39023;DHT22;25908;51.984;5.928;2022-09-23T05:58:41;11.00;96.00
39023;DHT22;25908;51.984;5.928;2022-09-23T06:01:12;11.00;96.00
39023;DHT22;25908;51.984;5.928;2022-09-23T06:03:38;11.00;96.00
39023;DHT22;25908;51.984;5.928;2022-09-23T06:06:04;11.10;96.10
39023;DHT22;25908;51.984;5.928;2022-09-23T06:08:29;11.10;96.00
39023;DHT22;25908;51.984;5.928;2022-09-23T06:10:56;11.10;96.00
39023;DHT22;25908;51.984;5.928;2022-09-23T06:13:22;11.10;96.00
39023;DHT22;25908;51.984;5.928;2022-09-23T06:15:48;11.20;96.10
39023;DHT22;25908;51.984;5.928;2022-09-23T06:18:14;11.20;96.40
39023;DHT22;25908;51.984;5.928;2022-09-23T06:20:41;11.20;96.10
39023;DHT22;25908;51.984;5.928;2022-09-23T06:23:09;11.30;96.10
39023;DHT22;25908;51.984;5.928;2022-09-23T06:25:36;11.30;96.20
39023;DHT22;25908;51.984;5.928;2022-09-23T06:28:06;11.40;96.20
39023;DHT22;25908;51.984;5.928;2022-09-23T06:30:35;11.40;96.20
39023;DHT22;25908;51.984;5.928;2022-09-23T06:33:00;11.40;96.20
39023;DHT22;25908;51.984;5.928;2022-09-23T06:35:27;11.40;96.30
39023;DHT22;25908;51.984;5.928;2022-09-23T06:37:53;11.50;96.30
39023;DHT22;25908;51.984;5.928;2022-09-23T06:40:20;11.50;96.30
39023;DHT22;25908;51.984;5.928;2022-09-23T06:42:47;11.60;96.20
39023;DHT22;25908;51.984;5.928;2022-09-23T06:45:13;11.70;96.30
39023;DHT22;25908;51.984;5.928;2022-09-23T06:47:42;11.70;96.20
39023;DHT22;25908;51.984;5.928;2022-09-23T06:50:09;11.70;96.20
39023;DHT22;25908;51.984;5.928;2022-09-23T06:52:36;11.80;96.20
39023;DHT22;25908;51.984;5.928;2022-09-23T06:55:02;11.80;96.10
39023;DHT22;25908;51.984;5.928;2022-09-23T06:57:29;11.80;95.90
39023;DHT22;25908;51.984;5.928;2022-09-23T06:59:55;11.90;96.00
39023;DHT22;25908;51.984;5.928;2022-09-23T07:02:22;11.90;95.80
39023;DHT22;25908;51.984;5.928;2022-09-23T07:04:48;12.00;95.80
39023;DHT22;25908;51.984;5.928;2022-09-23T07:07:13;12.00;95.80
39023;DHT22;25908;51.984;5.928;2022-09-23T07:09:40;12.00;95.80
39023;DHT22;25908;51.984;5.928;2022-09-23T07:12:06;12.10;95.70
39023;DHT22;25908;51.984;5.928;2022-09-23T07:14:32;12.10;95.80
39023;DHT22;25908;51.984;5.928;2022-09-23T07:16:58;12.20;95.80
39023;DHT22;25908;51.984;5.928;2022-09-23T07:19:24;12.20;95.50
39023;DHT22;25908;51.984;5.928;2022-09-23T07:21:50;12.30;95.40
39023;DHT22;25908;51.984;5.928;2022-09-23T07:24:16;12.30;95.60
39023;DHT22;25908;51.984;5.928;2022-09-23T07:26:42;12.40;95.60
39023;DHT22;25908;51.984;5.928;2022-09-23T07:29:12;12.40;95.40
39023;DHT22;25908;51.984;5.928;2022-09-23T07:31:38;12.40;95.10
39023;DHT22;25908;51.984;5.928;2022-09-23T07:34:04;12.50;94.90
39023;DHT22;25908;51.984;5.928;2022-09-23T07:36:30;12.50;94.80
39023;DHT22;25908;51.984;5.928;2022-09-23T07:38:57;12.50;94.90
39023;DHT22;25908;51.984;5.928;2022-09-23T07:41:25;12.60;95.00
39023;DHT22;25908;51.984;5.928;2022-09-23T07:43:53;12.60;94.90
39023;DHT22;25908;51.984;5.928;2022-09-23T07:46:23;12.70;94.80
39023;DHT22;25908;51.984;5.928;2022-09-23T07:48:49;12.70;94.50
39023;DHT22;25908;51.984;5.928;2022-09-23T07:51:19;12.80;94.50
39023;DHT22;25908;51.984;5.928;2022-09-23T07:53:50;12.80;94.60
39023;DHT22;25908;51.984;5.928;2022-09-23T07:56:18;12.90;94.50
39023;DHT22;25908;51.984;5.928;2022-09-23T07:58:44;13.00;94.20
39023;DHT22;25908;51.984;5.928;2022-09-23T08:01:11;13.00;93.70
39023;DHT22;25908;51.984;5.928;2022-09-23T08:03:37;13.10;93.50
39023;DHT22;25908;51.984;5.928;2022-09-23T08:06:09;13.20;93.30
39023;DHT22;25908;51.984;5.928;2022-09-23T08:08:35;13.40;93.10
39023;DHT22;25908;51.984;5.928;2022-09-23T08:11:05;13.50;93.20
39023;DHT22;25908;51.984;5.928;2022-09-23T08:13:32;13.70;92.90
39023;DHT22;25908;51.984;5.928;2022-09-23T08:15:57;13.80;92.60
39023;DHT22;25908;51.984;5.928;2022-09-23T08:18:24;13.90;92.50
39023;DHT22;25908;51.984;5.928;2022-09-23T08:20:50;14.10;91.60
39023;DHT22;25908;51.984;5.928;2022-09-23T08:23:16;14.20;91.60
39023;DHT22;25908;51.984;5.928;2022-09-23T08:25:43;14.30;91.20
39023;DHT22;25908;51.984;5.928;2022-09-23T08:28:15;14.50;91.10
39023;DHT22;25908;51.984;5.928;2022-09-23T08:30:43;14.50;90.90
39023;DHT22;25908;51.984;5.928;2022-09-23T08:33:10;14.70;91.00
39023;DHT22;25908;51.984;5.928;2022-09-23T08:35:38;14.70;90.60
39023;DHT22;25908;51.984;5.928;2022-09-23T08:38:03;14.80;90.60
39023;DHT22;25908;51.984;5.928;2022-09-23T08:40:31;14.80;90.50
39023;DHT22;25908;51.984;5.928;2022-09-23T08:42:58;14.90;90.20
39023;DHT22;25908;51.984;5.928;2022-09-23T08:45:25;14.90;90.00
39023;DHT22;25908;51.984;5.928;2022-09-23T08:48:00;15.00;89.60
39023;DHT22;25908;51.984;5.928;2022-09-23T08:50:49;15.10;89.50
39023;DHT22;25908;51.984;5.928;2022-09-23T08:53:26;15.20;89.90
39023;DHT22;25908;51.984;5.928;2022-09-23T08:55:54;15.20;88.90
39023;DHT22;25908;51.984;5.928;2022-09-23T09:01:25;15.30;89.10
39023;DHT22;25908;51.984;5.928;2022-09-23T09:03:57;15.40;88.60
39023;DHT22;25908;51.984;5.928;2022-09-23T09:06:33;15.50;88.90
39023;DHT22;25908;51.984;5.928;2022-09-23T09:09:04;15.60;88.80
39023;DHT22;25908;51.984;5.928;2022-09-23T09:11:39;15.70;87.50
39023;DHT22;25908;51.984;5.928;2022-09-23T09:16:54;15.80;86.40
39023;DHT22;25908;51.984;5.928;2022-09-23T09:19:51;15.90;86.20
39023;DHT22;25908;51.984;5.928;2022-09-23T09:22:20;15.90;86.10
39023;DHT22;25908;51.984;5.928;2022-09-23T09:24:47;16.00;86.50
39023;DHT22;25908;51.984;5.928;2022-09-23T09:27:13;16.10;86.90
39023;DHT22;25908;51.984;5.928;2022-09-23T09:29:45;16.20;85.50
39023;DHT22;25908;51.984;5.928;2022-09-23T09:32:30;16.30;85.20
39023;DHT22;25908;51.984;5.928;2022-09-23T09:35:05;16.40;84.40
39023;DHT22;25908;51.984;5.928;2022-09-23T09:37:40;16.40;84.60
39023;DHT22;25908;51.984;5.928;2022-09-23T09:40:12;16.40;85.00
39023;DHT22;25908;51.984;5.928;2022-09-23T09:42:40;16.50;85.20
39023;DHT22;25908;51.984;5.928;2022-09-23T09:48:24;16.70;84.50
39023;DHT22;25908;51.984;5.928;2022-09-23T09:50:53;16.60;84.10
39023;DHT22;25908;51.984;5.928;2022-09-23T09:53:24;16.60;84.20
39023;DHT22;25908;51.984;5.928;2022-09-23T09:56:15;16.60;84.40
39023;DHT22;25908;51.984;5.928;2022-09-23T09:59:08;16.60;84.90
39023;DHT22;25908;51.984;5.928;2022-09-23T10:01:35;16.70;84.00
39023;DHT22;25908;51.984;5.928;2022-09-23T10:04:19;16.70;84.40
39023;DHT22;25908;51.984;5.928;2022-09-23T10:07:04;16.80;84.10
39023;DHT22;25908;51.984;5.928;2022-09-23T10:09:33;16.90;84.40
39023;DHT22;25908;51.984;5.928;2022-09-23T10:12:09;17.00;84.50
39023;DHT22;25908;51.984;5.928;2022-09-23T10:14:37;17.00;84.60
39023;DHT22;25908;51.984;5.928;2022-09-23T10:17:05;17.10;84.00
39023;DHT22;25908;51.984;5.928;2022-09-23T10:19:31;17.30;83.20
39023;DHT22;25908;51.984;5.928;2022-09-23T10:22:02;17.30;83.10
39023;DHT22;25908;51.984;5.928;2022-09-23T10:24:31;17.40;82.60
39023;DHT22;25908;51.984;5.928;2022-09-23T10:27:03;17.50;82.60
39023;DHT22;25908;51.984;5.928;2022-09-23T10:29:47;17.60;82.40
39023;DHT22;25908;51.984;5.928;2022-09-23T10:34:52;17.80;81.00
39023;DHT22;25908;51.984;5.928;2022-09-23T10:37:40;17.80;80.90
39023;DHT22;25908;51.984;5.928;2022-09-23T10:40:39;17.90;81.50
39023;DHT22;25908;51.984;5.928;2022-09-23T10:44:00;17.90;81.00
39023;DHT22;25908;51.984;5.928;2022-09-23T10:47:16;18.00;80.50
39023;DHT22;25908;51.984;5.928;2022-09-23T10:50:02;18.10;80.60
39023;DHT22;25908;51.984;5.928;2022-09-23T10:52:48;18.20;80.00
39023;DHT22;25908;51.984;5.928;2022-09-23T10:55:32;18.20;79.40
39023;DHT22;25908;51.984;5.928;2022-09-23T10:58:20;18.30;79.70
39023;DHT22;25908;51.984;5.928;2022-09-23T11:11:59;18.30;78.20
39023;DHT22;25908;51.984;5.928;2022-09-23T11:25:41;18.20;78.00
39023;DHT22;25908;51.984;5.928;2022-09-23T11:33:52;18.10;78.90
39023;DHT22;25908;51.984;5.928;2022-09-23T11:36:26;18.10;78.80
39023;DHT22;25908;51.984;5.928;2022-09-23T11:38:58;18.10;79.10
39023;DHT22;25908;51.984;5.928;2022-09-23T11:41:26;18.20;79.20
39023;DHT22;25908;51.984;5.928;2022-09-23T11:43:58;18.30;79.20
39023;DHT22;25908;51.984;5.928;2022-09-23T11:49:26;18.30;78.50
39023;DHT22;25908;51.984;5.928;2022-09-23T11:54:24;18.30;78.60
39023;DHT22;25908;51.984;5.928;2022-09-23T11:56:53;18.20;78.10
39023;DHT22;25908;51.984;5.928;2022-09-23T11:59:48;18.20;78.60
39023;DHT22;25908;51.984;5.928;2022-09-23T12:02:17;18.30;79.40
39023;DHT22;25908;51.984;5.928;2022-09-23T12:05:08;18.20;78.90
39023;DHT22;25908;51.984;5.928;2022-09-23T12:07:54;18.20;78.60
39023;DHT22;25908;51.984;5.928;2022-09-23T12:10:36;18.20;78.50
39023;DHT22;25908;51.984;5.928;2022-09-23T12:13:20;18.20;78.50
39023;DHT22;25908;51.984;5.928;2022-09-23T12:21:49;18.40;78.10
39023;DHT22;25908;51.984;5.928;2022-09-23T12:27:06;18.50;77.80
39023;DHT22;25908;51.984;5.928;2022-09-23T12:29:34;18.50;76.90
39023;DHT22;25908;51.984;5.928;2022-09-23T12:32:01;18.60;77.00
39023;DHT22;25908;51.984;5.928;2022-09-23T12:34:41;18.60;75.10
39023;DHT22;25908;51.984;5.928;2022-09-23T12:37:24;18.60;75.70
39023;DHT22;25908;51.984;5.928;2022-09-23T12:39:51;18.70;75.70
39023;DHT22;25908;51.984;5.928;2022-09-23T12:42:18;18.70;74.20
39023;DHT22;25908;51.984;5.928;2022-09-23T12:44:46;18.70;74.00
39023;DHT22;25908;51.984;5.928;2022-09-23T12:49:46;18.80;73.90
39023;DHT22;25908;51.984;5.928;2022-09-23T12:54:39;18.80;73.60
39023;DHT22;25908;51.984;5.928;2022-09-23T13:02:42;18.80;73.90
39023;DHT22;25908;51.984;5.928;2022-09-23T13:05:46;18.80;74.10
39023;DHT22;25908;51.984;5.928;2022-09-23T13:08:35;18.80;74.20
39023;DHT22;25908;51.984;5.928;2022-09-23T13:11:03;18.90;74.20
39023;DHT22;25908;51.984;5.928;2022-09-23T13:13:40;18.90;74.40
39023;DHT22;25908;51.984;5.928;2022-09-23T13:16:20;19.00;73.80
39023;DHT22;25908;51.984;5.928;2022-09-23T13:21:50;19.00;73.60
39023;DHT22;25908;51.984;5.928;2022-09-23T13:26:55;19.00;73.40
39023;DHT22;25908;51.984;5.928;2022-09-23T13:32:17;19.00;72.70
39023;DHT22;25908;51.984;5.928;2022-09-23T13:34:56;19.00;73.80
39023;DHT22;25908;51.984;5.928;2022-09-23T13:37:52;19.00;73.50
39023;DHT22;25908;51.984;5.928;2022-09-23T13:40:25;19.00;73.70
39023;DHT22;25908;51.984;5.928;2022-09-23T13:43:06;19.00;72.70
39023;DHT22;25908;51.984;5.928;2022-09-23T13:45:39;19.00;73.10
39023;DHT22;25908;51.984;5.928;2022-09-23T13:48:12;19.00;73.10
39023;DHT22;25908;51.984;5.928;2022-09-23T13:50:44;18.90;72.60
39023;DHT22;25908;51.984;5.928;2022-09-23T13:53:25;18.90;72.50
39023;DHT22;25908;51.984;5.928;2022-09-23T13:56:13;18.90;73.10
39023;DHT22;25908;51.984;5.928;2022-09-23T13:58:39;18.90;72.80
39023;DHT22;25908;51.984;5.928;2022-09-23T14:01:14;18.90;72.80
39023;DHT22;25908;51.984;5.928;2022-09-23T14:03:44;18.90;73.50
39023;DHT22;25908;51.984;5.928;2022-09-23T14:06:12;18.80;72.60
39023;DHT22;25908;51.984;5.928;2022-09-23T14:08:49;18.90;73.20
39023;DHT22;25908;51.984;5.928;2022-09-23T14:11:35;18.90;73.80
39023;DHT22;25908;51.984;5.928;2022-09-23T14:14:02;18.90;73.10
39023;DHT22;25908;51.984;5.928;2022-09-23T14:16:35;19.00;73.30
39023;DHT22;25908;51.984;5.928;2022-09-23T14:19:02;19.00;73.10
39023;DHT22;25908;51.984;5.928;2022-09-23T14:21:31;19.00;73.30
39023;DHT22;25908;51.984;5.928;2022-09-23T14:26:58;19.10;74.10
39023;DHT22;25908;51.984;5.928;2022-09-23T14:29:30;19.10;74.40
39023;DHT22;25908;51.984;5.928;2022-09-23T14:31:59;19.10;73.20
39023;DHT22;25908;51.984;5.928;2022-09-23T14:34:40;19.00;73.50
39023;DHT22;25908;51.984;5.928;2022-09-23T14:37:23;19.00;73.10
39023;DHT22;25908;51.984;5.928;2022-09-23T14:42:41;19.00;73.40
39023;DHT22;25908;51.984;5.928;2022-09-23T14:45:13;19.00;73.60
39023;DHT22;25908;51.984;5.928;2022-09-23T14:47:43;18.90;73.50
39023;DHT22;25908;51.984;5.928;2022-09-23T14:50:24;18.90;73.70
39023;DHT22;25908;51.984;5.928;2022-09-23T14:55:53;18.90;74.30
39023;DHT22;25908;51.984;5.928;2022-09-23T14:58:24;18.90;74.10
39023;DHT22;25908;51.984;5.928;2022-09-23T15:00:55;18.90;74.50
39023;DHT22;25908;51.984;5.928;2022-09-23T15:03:21;18.90;74.80
39023;DHT22;25908;51.984;5.928;2022-09-23T15:05:49;18.90;74.90
39023;DHT22;25908;51.984;5.928;2022-09-23T15:08:23;18.90;74.80
39023;DHT22;25908;51.984;5.928;2022-09-23T15:10:51;18.90;74.60
39023;DHT22;25908;51.984;5.928;2022-09-23T15:13:21;18.90;74.30
39023;DHT22;25908;51.984;5.928;2022-09-23T15:15:51;18.90;73.60
39023;DHT22;25908;51.984;5.928;2022-09-23T15:18:21;18.80;73.50
39023;DHT22;25908;51.984;5.928;2022-09-23T15:20:50;18.80;72.90
39023;DHT22;25908;51.984;5.928;2022-09-23T15:26:05;18.70;73.40
39023;DHT22;25908;51.984;5.928;2022-09-23T15:28:33;18.70;73.60
39023;DHT22;25908;51.984;5.928;2022-09-23T15:30:58;18.70;73.80
39023;DHT22;25908;51.984;5.928;2022-09-23T15:33:24;18.60;74.90
39023;DHT22;25908;51.984;5.928;2022-09-23T15:35:53;18.60;74.60
39023;DHT22;25908;51.984;5.928;2022-09-23T15:38:19;18.60;75.20
39023;DHT22;25908;51.984;5.928;2022-09-23T15:40:46;18.60;75.70
39023;DHT22;25908;51.984;5.928;2022-09-23T15:43:13;18.60;76.10
39023;DHT22;25908;51.984;5.928;2022-09-23T15:45:45;18.60;75.00
39023;DHT22;25908;51.984;5.928;2022-09-23T15:48:13;18.60;75.10
39023;DHT22;25908;51.984;5.928;2022-09-23T15:50:40;18.60;74.90
39023;DHT22;25908;51.984;5.928;2022-09-23T15:53:13;18.50;75.00
39023;DHT22;25908;51.984;5.928;2022-09-23T15:55:39;18.50;75.00
39023;DHT22;25908;51.984;5.928;2022-09-23T15:58:05;18.50;75.10
39023;DHT22;25908;51.984;5.928;2022-09-23T16:00:31;18.50;75.40
39023;DHT22;25908;51.984;5.928;2022-09-23T16:02:58;18.50;76.20
39023;DHT22;25908;51.984;5.928;2022-09-23T16:05:28;18.40;76.30
39023;DHT22;25908;51.984;5.928;2022-09-23T16:08:01;18.40;76.20
39023;DHT22;25908;51.984;5.928;2022-09-23T16:10:27;18.40;76.40
39023;DHT22;25908;51.984;5.928;2022-09-23T16:12:54;18.40;76.50
39023;DHT22;25908;51.984;5.928;2022-09-23T16:15:22;18.30;76.40
39023;DHT22;25908;51.984;5.928;2022-09-23T16:17:48;18.30;77.40
39023;DHT22;25908;51.984;5.928;2022-09-23T16:20:14;18.30;78.30
39023;DHT22;25908;51.984;5.928;2022-09-23T16:22:51;18.30;78.50
39023;DHT22;25908;51.984;5.928;2022-09-23T16:25:17;18.20;77.50
39023;DHT22;25908;51.984;5.928;2022-09-23T16:27:44;18.20;77.80
39023;DHT22;25908;51.984;5.928;2022-09-23T16:30:10;18.20;77.90
39023;DHT22;25908;51.984;5.928;2022-09-23T16:32:35;18.30;79.10
39023;DHT22;25908;51.984;5.928;2022-09-23T16:35:01;18.20;79.20
39023;DHT22;25908;51.984;5.928;2022-09-23T16:37:27;18.20;79.40
39023;DHT22;25908;51.984;5.928;2022-09-23T16:39:52;18.10;79.20
39023;DHT22;25908;51.984;5.928;2022-09-23T16:42:18;18.20;79.40
39023;DHT22;25908;51.984;5.928;2022-09-23T16:44:43;18.10;79.10
39023;DHT22;25908;51.984;5.928;2022-09-23T16:47:09;18.10;79.10
39023;DHT22;25908;51.984;5.928;2022-09-23T16:49:34;18.10;79.50
39023;DHT22;25908;51.984;5.928;2022-09-23T16:52:00;18.10;79.20
39023;DHT22;25908;51.984;5.928;2022-09-23T16:54:26;18.00;79.20
39023;DHT22;25908;51.984;5.928;2022-09-23T16:56:52;18.00;79.90
39023;DHT22;25908;51.984;5.928;2022-09-23T16:59:19;18.00;80.30
39023;DHT22;25908;51.984;5.928;2022-09-23T17:01:45;18.00;81.50
39023;DHT22;25908;51.984;5.928;2022-09-23T17:04:29;17.90;82.40
39023;DHT22;25908;51.984;5.928;2022-09-23T17:06:56;17.80;82.50
39023;DHT22;25908;51.984;5.928;2022-09-23T17:09:26;17.80;83.60
39023;DHT22;25908;51.984;5.928;2022-09-23T17:12:19;17.80;84.50
39023;DHT22;25908;51.984;5.928;2022-09-23T17:14:47;17.70;85.20
39023;DHT22;25908;51.984;5.928;2022-09-23T17:17:13;17.70;85.60
39023;DHT22;25908;51.984;5.928;2022-09-23T17:19:38;17.60;86.10
39023;DHT22;25908;51.984;5.928;2022-09-23T17:22:05;17.50;86.20
39023;DHT22;25908;51.984;5.928;2022-09-23T17:24:31;17.50;87.70
39023;DHT22;25908;51.984;5.928;2022-09-23T17:26:56;17.40;88.10
39023;DHT22;25908;51.984;5.928;2022-09-23T17:29:22;17.40;87.70
39023;DHT22;25908;51.984;5.928;2022-09-23T17:31:51;17.40;88.30
39023;DHT22;25908;51.984;5.928;2022-09-23T17:34:17;17.40;88.70
39023;DHT22;25908;51.984;5.928;2022-09-23T17:36:43;17.30;89.60
39023;DHT22;25908;51.984;5.928;2022-09-23T17:39:09;17.30;90.20
39023;DHT22;25908;51.984;5.928;2022-09-23T17:41:35;17.30;90.60
39023;DHT22;25908;51.984;5.928;2022-09-23T17:44:03;17.20;90.90
39023;DHT22;25908;51.984;5.928;2022-09-23T17:46:29;17.20;91.10
39023;DHT22;25908;51.984;5.928;2022-09-23T17:48:56;17.20;91.30
39023;DHT22;25908;51.984;5.928;2022-09-23T17:51:22;17.10;91.40
39023;DHT22;25908;51.984;5.928;2022-09-23T17:53:48;17.10;91.70
39023;DHT22;25908;51.984;5.928;2022-09-23T17:56:15;17.10;91.90